createdAt,value
2018-07-07T00:00:42.856Z,17.07
2018-07-07T00:03:15.686Z,15.30
2018-07-07T00:05:44.816Z,15.50
2018-07-07T00:08:13.492Z,17.37
2018-07-07T00:10:43.627Z,12.93
2018-07-07T00:13:12.377Z,14.33
2018-07-07T00:15:41.191Z,18.07
2018-07-07T00:18:11.153Z,10.80
2018-07-07T00:20:40.764Z,13.90
2018-07-07T00:23:11.350Z,14.90
2018-07-07T00:25:40.241Z,10.43
2018-07-07T00:28:08.998Z,13.10
2018-07-07T00:30:39.800Z,12.07
2018-07-07T00:33:10.248Z,13.90
2018-07-07T00:35:39.499Z,17.67
2018-07-07T00:38:08.562Z,14.80
2018-07-07T00:40:56.833Z,15.03
2018-07-07T00:43:25.807Z,18.77
2018-07-07T00:45:57.287Z,16.20
2018-07-07T00:48:25.756Z,17.80
2018-07-07T00:50:54.462Z,12.73
2018-07-07T00:53:22.532Z,22.27
2018-07-07T00:55:50.781Z,21.83
2018-07-07T00:58:18.737Z,19.73
2018-07-07T01:00:53.471Z,20.63
2018-07-07T01:03:22.113Z,14.40
2018-07-07T01:05:50.407Z,24.90
2018-07-07T01:08:18.511Z,19.90
2018-07-07T01:10:46.530Z,22.33
2018-07-07T01:13:14.859Z,18.90
2018-07-07T01:15:43.090Z,18.17
2018-07-07T01:18:10.846Z,19.03
2018-07-07T01:20:38.796Z,18.33
2018-07-07T01:23:07.029Z,15.80
2018-07-07T01:25:34.684Z,17.60
2018-07-07T01:28:02.245Z,22.50
2018-07-07T01:30:29.949Z,21.57
2018-07-07T01:32:57.561Z,19.47
2018-07-07T01:35:25.361Z,22.17
2018-07-07T01:37:53.354Z,21.30
2018-07-07T01:40:21.028Z,20.93
2018-07-07T01:42:48.765Z,16.33
2018-07-07T01:45:16.384Z,16.60
2018-07-07T01:47:43.943Z,17.10
2018-07-07T01:50:11.447Z,18.77
2018-07-07T01:52:39.017Z,14.57
2018-07-07T01:55:06.526Z,19.17
2018-07-07T01:57:34.028Z,17.20
2018-07-07T02:00:01.730Z,15.50
2018-07-07T02:02:29.281Z,17.83
2018-07-07T02:04:56.844Z,18.70
2018-07-07T02:07:24.322Z,12.53
2018-07-07T02:09:51.978Z,12.33
2018-07-07T02:12:19.630Z,13.80
2018-07-07T02:14:47.280Z,8.53
2018-07-07T02:17:15.204Z,9.37
2018-07-07T02:19:42.750Z,19.10
2018-07-07T02:22:13.989Z,12.60
2018-07-07T02:24:41.740Z,10.40
2018-07-07T02:27:09.427Z,14.73
2018-07-07T02:29:39.148Z,11.77
2018-07-07T02:32:08.106Z,14.13
2018-07-07T02:34:43.148Z,24.07
2018-07-07T02:37:22.307Z,12.67
2018-07-07T02:39:52.201Z,16.77
2018-07-07T02:42:21.347Z,14.20
2018-07-07T02:44:50.189Z,20.17
2018-07-07T02:47:20.377Z,16.67
2018-07-07T02:49:48.672Z,14.40
2018-07-07T02:52:19.266Z,17.87
2018-07-07T02:54:47.470Z,21.13
2018-07-07T02:57:15.593Z,13.80
2018-07-07T02:59:44.986Z,21.47
2018-07-07T03:02:13.830Z,15.57
2018-07-07T03:04:42.289Z,24.37
2018-07-07T03:07:11.270Z,21.17
2018-07-07T03:09:39.700Z,23.00
2018-07-07T03:12:07.456Z,22.37
2018-07-07T03:14:35.181Z,22.63
2018-07-07T03:17:02.872Z,27.20
2018-07-07T03:19:30.375Z,30.57
2018-07-07T03:21:57.840Z,32.53
2018-07-07T03:24:25.425Z,24.23
2018-07-07T03:26:52.949Z,23.77
2018-07-07T03:29:20.511Z,23.60
2018-07-07T03:31:48.449Z,17.83
2018-07-07T03:34:15.962Z,21.60
2018-07-07T03:36:44.187Z,14.87
2018-07-07T03:39:12.314Z,30.43
2018-07-07T03:41:39.937Z,22.87
2018-07-07T03:44:07.740Z,18.77
2018-07-07T03:46:59.922Z,17.63
2018-07-07T03:49:27.695Z,23.70
2018-07-07T03:51:55.186Z,26.13
2018-07-07T03:54:25.402Z,17.73
2018-07-07T03:56:53.204Z,27.23
2018-07-07T03:59:21.263Z,20.60
2018-07-07T04:01:49.813Z,24.80
2018-07-07T04:04:18.764Z,24.07
2018-07-07T04:06:50.149Z,26.07
2018-07-07T04:09:18.554Z,20.20
2018-07-07T04:11:47.131Z,24.53
2018-07-07T04:14:14.839Z,20.83
2018-07-07T04:16:42.345Z,23.37
2018-07-07T04:19:10.005Z,20.57
2018-07-07T04:21:37.560Z,22.33
2018-07-07T04:24:05.095Z,18.70
2018-07-07T04:26:32.786Z,20.47
2018-07-07T04:29:03.678Z,15.70
2018-07-07T04:31:32.944Z,23.97
2018-07-07T04:34:01.152Z,18.00
2018-07-07T04:36:31.902Z,20.00
2018-07-07T04:41:52.349Z,21.53
2018-07-07T04:44:21.876Z,14.73
2018-07-07T04:46:50.294Z,16.73
2018-07-07T04:49:19.524Z,15.87
2018-07-07T04:51:50.721Z,19.93
2018-07-07T04:54:20.980Z,18.67
2018-07-07T04:56:56.761Z,21.30
2018-07-07T04:59:28.750Z,17.83
2018-07-07T05:01:57.257Z,22.30
2018-07-07T05:04:25.134Z,18.67
2018-07-07T05:06:57.203Z,18.13
2018-07-07T05:09:29.637Z,18.77
2018-07-07T05:11:58.384Z,15.73
2018-07-07T05:14:26.933Z,18.03
2018-07-07T05:16:55.227Z,19.40
2018-07-07T05:19:23.921Z,22.47
2018-07-07T05:21:52.465Z,20.17
2018-07-07T05:24:20.153Z,18.43
2018-07-07T05:26:47.760Z,26.60
2018-07-07T05:29:15.344Z,18.87
2018-07-07T05:31:43.788Z,18.23
2018-07-07T05:34:11.566Z,18.33
2018-07-07T05:40:58.657Z,23.17
2018-07-07T05:43:35.479Z,16.83
2018-07-07T05:46:32.641Z,23.00
2018-07-07T05:49:00.286Z,27.80
2018-07-07T05:51:30.498Z,26.87
2018-07-07T05:53:58.338Z,16.40
2018-07-07T05:56:28.437Z,28.93
2018-07-07T05:59:09.221Z,23.07
2018-07-07T06:01:47.581Z,22.50
2018-07-07T06:04:16.044Z,21.93
2018-07-07T06:06:44.593Z,24.50
2018-07-07T06:09:12.505Z,20.67
2018-07-07T06:11:40.855Z,17.83
2018-07-07T06:14:08.889Z,20.57
2018-07-07T06:16:42.072Z,19.20
2018-07-07T06:19:10.073Z,22.10
2018-07-07T06:21:37.925Z,18.30
2018-07-07T06:24:05.937Z,21.13
2018-07-07T06:26:34.933Z,20.83
2018-07-07T06:29:03.237Z,18.13
2018-07-07T06:31:31.044Z,18.37
2018-07-07T06:33:58.645Z,20.20
2018-07-07T06:36:26.283Z,23.87
2018-07-07T06:38:58.194Z,16.77
2018-07-07T06:41:26.605Z,18.73
2018-07-07T06:43:56.022Z,16.90
2018-07-07T06:46:23.853Z,22.23
2018-07-07T06:48:52.334Z,16.63
2018-07-07T06:51:20.081Z,16.47
2018-07-07T06:53:49.942Z,18.47
2018-07-07T06:56:19.246Z,18.53
2018-07-07T06:58:49.910Z,15.37
2018-07-07T07:01:19.062Z,19.00
2018-07-07T07:03:48.530Z,16.60
2018-07-07T07:06:16.581Z,16.17
2018-07-07T07:08:46.241Z,15.27
2018-07-07T07:11:14.687Z,15.23
2018-07-07T07:13:44.107Z,19.97
2018-07-07T07:16:12.285Z,12.77
2018-07-07T07:18:40.368Z,14.37
2018-07-07T07:21:08.091Z,17.73
2018-07-07T07:23:35.855Z,19.70
2018-07-07T07:26:03.415Z,12.27
2018-07-07T07:28:36.549Z,17.83
2018-07-07T07:31:09.176Z,16.47
2018-07-07T07:33:39.183Z,14.17
2018-07-07T07:36:13.057Z,15.67
2018-07-07T07:38:44.588Z,20.80
2018-07-07T07:41:13.675Z,16.80
2018-07-07T07:43:42.498Z,14.73
2018-07-07T07:46:13.383Z,13.97
2018-07-07T07:48:41.379Z,16.17
2018-07-07T07:51:09.698Z,18.80
2018-07-07T07:53:38.234Z,16.33
2018-07-07T07:56:10.530Z,14.43
2018-07-07T08:03:19.448Z,14.90
2018-07-07T08:05:49.407Z,13.53
2018-07-07T08:08:18.704Z,18.27
2018-07-07T08:11:05.123Z,15.10
2018-07-07T08:13:52.515Z,14.37
2018-07-07T08:19:21.514Z,12.93
2018-07-07T08:22:20.325Z,13.40
2018-07-07T08:24:58.211Z,13.63
2018-07-07T08:30:42.923Z,10.27
2018-07-07T08:33:19.761Z,17.67
2018-07-07T08:35:55.498Z,16.10
2018-07-07T08:38:25.339Z,12.37
2018-07-07T08:40:58.812Z,15.13
2018-07-07T08:43:34.103Z,13.10
2018-07-07T08:46:05.759Z,16.83
2018-07-07T08:48:38.496Z,15.87
2018-07-07T08:51:12.195Z,12.47
2018-07-07T08:53:42.041Z,11.00
2018-07-07T08:56:30.244Z,14.33
2018-07-07T09:23:45.344Z,8.87
2018-07-07T09:26:55.454Z,12.07
2018-07-07T09:29:42.460Z,9.57
2018-07-07T09:32:37.273Z,12.00
2018-07-07T09:37:54.630Z,12.90
2018-07-07T09:43:27.980Z,12.30
2018-07-07T09:49:11.000Z,13.30
2018-07-07T09:51:50.909Z,12.07
2018-07-07T09:54:37.894Z,11.73
2018-07-07T09:57:35.320Z,13.97
2018-07-07T10:00:16.701Z,12.53
2018-07-07T10:05:57.724Z,10.63
2018-07-07T10:08:36.758Z,10.53
2018-07-07T10:11:46.320Z,11.30
2018-07-07T10:17:31.968Z,13.40
2018-07-07T10:25:19.047Z,11.23
2018-07-07T10:27:52.852Z,10.87
2018-07-07T10:45:22.905Z,11.93
2018-07-07T10:48:21.771Z,11.57
2018-07-07T10:54:19.523Z,10.43
2018-07-07T10:56:54.071Z,9.63
2018-07-07T10:59:30.002Z,11.77
2018-07-07T11:10:10.241Z,8.20
2018-07-07T11:19:10.948Z,11.10
2018-07-07T11:22:18.371Z,7.53
2018-07-07T11:25:02.255Z,9.10
2018-07-07T11:34:29.456Z,12.03
2018-07-07T11:41:30.152Z,8.43
2018-07-07T11:48:35.095Z,9.63
2018-07-07T11:52:07.275Z,8.87
2018-07-07T11:55:16.877Z,8.63
2018-07-07T11:58:56.601Z,10.30
2018-07-07T12:23:31.989Z,9.00
2018-07-07T12:38:14.994Z,9.17
2018-07-07T12:40:50.360Z,10.17
2018-07-07T12:43:54.026Z,10.13
2018-07-07T13:02:28.964Z,11.27
2018-07-07T13:09:28.377Z,8.63
2018-07-07T13:12:16.086Z,8.70
2018-07-07T13:15:25.465Z,10.07
2018-07-07T13:23:39.653Z,7.23
2018-07-07T13:26:18.943Z,10.13
2018-07-07T13:29:09.934Z,7.77
2018-07-07T13:32:37.746Z,6.80
2018-07-07T13:36:16.768Z,5.97
2018-07-07T13:52:23.451Z,8.23
2018-07-07T14:13:16.234Z,7.20
2018-07-07T14:16:25.987Z,6.90
2018-07-07T14:21:18.478Z,9.83
2018-07-07T14:31:43.293Z,6.53
2018-07-07T14:40:41.198Z,6.10
2018-07-07T14:43:57.022Z,7.40
2018-07-07T14:56:17.323Z,8.27
2018-07-07T15:29:12.527Z,6.40
2018-07-07T15:32:08.636Z,8.07
2018-07-07T15:54:03.972Z,6.40
2018-07-07T16:42:44.211Z,7.50
2018-07-07T16:45:52.432Z,7.43
2018-07-07T16:48:46.244Z,8.57
2018-07-07T17:07:03.033Z,8.50
2018-07-07T17:09:40.896Z,7.43
2018-07-07T17:15:04.727Z,6.13
2018-07-07T17:17:41.248Z,7.50
2018-07-07T17:30:02.162Z,7.20
2018-07-07T17:32:41.006Z,7.57
2018-07-07T17:35:19.519Z,8.17
2018-07-07T17:38:09.084Z,7.87
2018-07-07T17:43:46.029Z,10.73
2018-07-07T17:46:18.955Z,9.00
2018-07-07T17:48:54.113Z,6.70
2018-07-07T17:51:58.722Z,6.97
2018-07-07T17:54:35.693Z,6.53
2018-07-07T17:57:08.329Z,9.73
2018-07-07T18:06:44.522Z,12.90
2018-07-07T18:09:34.744Z,14.00
2018-07-07T18:12:13.181Z,13.43
2018-07-07T18:14:42.996Z,12.93
2018-07-07T18:17:14.399Z,14.40
2018-07-07T18:19:46.082Z,12.70
2018-07-07T18:22:25.212Z,12.90
2018-07-07T18:25:14.671Z,15.73
2018-07-07T18:32:34.500Z,19.07
2018-07-07T18:35:14.483Z,11.03
2018-07-07T18:37:48.156Z,18.83
2018-07-07T18:40:26.684Z,13.43
2018-07-07T18:43:02.152Z,11.50
2018-07-07T18:48:45.624Z,11.60
2018-07-07T18:51:20.900Z,10.90
2018-07-07T18:54:05.502Z,8.00
2018-07-07T18:56:40.037Z,10.07
2018-07-07T18:59:14.394Z,10.83
2018-07-07T19:01:55.970Z,11.93
2018-07-07T19:04:31.419Z,10.40
2018-07-07T19:07:09.550Z,9.27
2018-07-07T19:09:42.180Z,13.40
2018-07-07T19:12:19.029Z,7.50
2018-07-07T19:18:49.834Z,11.23
2018-07-07T19:21:26.629Z,12.97
2018-07-07T19:24:12.851Z,11.97
2018-07-07T19:42:41.882Z,6.97
2018-07-07T19:45:11.873Z,7.57
2018-07-07T19:47:45.531Z,6.50
2018-07-07T19:50:19.156Z,6.53
2018-07-07T19:55:32.268Z,5.57
2018-07-07T19:58:04.975Z,6.27
2018-07-07T20:00:52.365Z,5.03
2018-07-07T20:05:31.120Z,4.30
2018-07-07T20:10:38.758Z,4.93
2018-07-07T20:13:10.770Z,5.43
2018-07-07T20:15:58.434Z,4.70
2018-07-07T20:18:39.439Z,4.47
2018-07-07T20:21:24.938Z,8.47
2018-07-07T20:23:55.099Z,5.90
2018-07-07T20:26:24.433Z,4.63
2018-07-07T20:31:55.544Z,5.43
2018-07-07T20:34:25.661Z,5.07
2018-07-07T20:36:56.805Z,4.90
2018-07-07T20:39:38.164Z,5.80
2018-07-07T20:42:07.403Z,4.13
2018-07-07T20:49:29.505Z,6.87
2018-07-07T20:51:58.656Z,4.67
2018-07-07T20:54:27.515Z,5.10
2018-07-07T20:56:57.553Z,4.77
2018-07-07T20:59:27.974Z,5.83
2018-07-07T21:01:56.620Z,4.30
2018-07-07T21:04:25.770Z,9.63
2018-07-07T21:06:54.794Z,4.20
2018-07-07T21:09:24.607Z,4.30
2018-07-07T21:11:53.501Z,4.30
2018-07-07T21:14:29.715Z,4.87
2018-07-07T21:19:39.388Z,4.00
2018-07-07T21:22:08.082Z,3.90
2018-07-07T21:24:37.007Z,5.83
2018-07-07T21:27:06.456Z,5.30
2018-07-07T21:29:35.768Z,4.87
2018-07-07T21:32:04.562Z,4.90
2018-07-07T21:34:34.762Z,5.73
2018-07-07T21:37:03.949Z,3.80
2018-07-07T21:39:33.300Z,3.87
2018-07-07T21:42:03.590Z,5.27
2018-07-07T21:44:32.407Z,6.73
2018-07-07T21:47:01.788Z,6.10
2018-07-07T21:49:32.499Z,4.23
2018-07-07T21:52:02.080Z,7.33
2018-07-07T21:54:31.255Z,5.57
2018-07-07T21:57:00.770Z,6.10
2018-07-07T21:59:29.272Z,8.63
2018-07-07T22:02:04.112Z,4.77
2018-07-07T22:04:39.400Z,9.30
2018-07-07T22:07:14.573Z,6.60
2018-07-07T22:09:44.194Z,6.17
2018-07-07T22:12:43.817Z,4.40
2018-07-07T22:15:16.059Z,5.20
2018-07-07T22:17:53.062Z,5.73
2018-07-07T22:20:32.497Z,6.23
2018-07-07T22:23:04.231Z,5.30
2018-07-07T22:25:35.095Z,5.33
2018-07-07T22:28:10.205Z,6.63
2018-07-07T22:30:40.226Z,5.50
2018-07-07T22:36:34.796Z,7.40
2018-07-07T22:39:07.162Z,6.20
2018-07-07T22:41:52.245Z,8.17
2018-07-07T22:44:21.032Z,5.37
2018-07-07T22:46:52.745Z,5.23
2018-07-07T22:49:22.815Z,5.30
2018-07-07T22:51:51.813Z,6.23
2018-07-07T22:54:22.228Z,6.63
2018-07-07T22:56:51.636Z,7.13
2018-07-07T22:59:20.464Z,5.10
2018-07-07T23:01:49.202Z,5.23
2018-07-07T23:04:17.659Z,5.27
2018-07-07T23:06:45.863Z,7.33
2018-07-07T23:09:15.232Z,7.67
2018-07-07T23:11:43.034Z,6.10
2018-07-07T23:14:10.895Z,6.70
2018-07-07T23:16:38.880Z,5.60
2018-07-07T23:19:07.228Z,5.93
2018-07-07T23:21:35.156Z,4.77
2018-07-07T23:24:03.552Z,5.97
2018-07-07T23:26:31.729Z,7.17
2018-07-07T23:29:07.030Z,5.80
2018-07-07T23:31:34.653Z,7.00
2018-07-07T23:34:02.982Z,6.67
2018-07-07T23:36:30.974Z,7.73
2018-07-07T23:38:58.646Z,6.63
2018-07-07T23:41:26.203Z,8.47
2018-07-07T23:43:53.954Z,5.83
2018-07-07T23:46:21.692Z,5.60
2018-07-07T23:48:49.521Z,6.53
2018-07-07T23:51:17.473Z,6.77
2018-07-07T23:53:45.395Z,5.87
2018-07-07T23:56:13.291Z,7.83
2018-07-07T23:58:41.269Z,6.63
